createdAt,value
2023-01-29T00:00:39.795Z,-6.27
2023-01-29T00:03:07.747Z,-6.18
2023-01-29T00:05:35.801Z,-6.10
2023-01-29T00:08:04.059Z,-6.00
2023-01-29T00:10:32.797Z,-5.92
2023-01-29T00:13:01.591Z,-5.82
2023-01-29T00:15:29.592Z,-5.74
2023-01-29T00:17:57.536Z,-5.67
2023-01-29T00:20:25.356Z,-5.60
2023-01-29T00:22:53.885Z,-5.52
2023-01-29T00:25:21.770Z,-5.44
2023-01-29T00:27:50.251Z,-5.38
2023-01-29T00:30:20.076Z,-5.32
2023-01-29T00:32:48.321Z,-5.29
2023-01-29T00:35:16.191Z,-5.24
2023-01-29T00:37:44.127Z,-5.21
2023-01-29T00:40:12.524Z,-5.19
2023-01-29T00:42:59.598Z,-5.15
2023-01-29T00:45:27.729Z,-5.12
2023-01-29T00:47:55.721Z,-5.10
2023-01-29T00:50:23.874Z,-5.08
2023-01-29T00:52:52.981Z,-5.06
2023-01-29T00:55:21.567Z,-5.04
2023-01-29T00:57:50.121Z,-5.02
2023-01-29T01:00:19.306Z,-5.00
2023-01-29T01:03:05.953Z,-5.00
2023-01-29T01:05:38.118Z,-5.00
2023-01-29T01:08:26.039Z,-5.00
2023-01-29T01:11:05.129Z,-5.01
2023-01-29T01:13:33.895Z,-5.03
2023-01-29T01:16:01.970Z,-5.04
2023-01-29T01:18:30.584Z,-5.06
2023-01-29T01:20:58.475Z,-5.05
2023-01-29T01:23:26.363Z,-5.04
2023-01-29T01:25:54.285Z,-5.03
2023-01-29T01:28:22.479Z,-5.04
2023-01-29T01:30:50.509Z,-5.06
2023-01-29T01:33:18.521Z,-5.07
2023-01-29T01:35:46.490Z,-5.09
2023-01-29T01:38:17.761Z,-5.11
2023-01-29T01:40:46.716Z,-5.12
2023-01-29T01:43:14.769Z,-5.13
2023-01-29T01:45:46.787Z,-5.15
2023-01-29T01:48:18.498Z,-5.16
2023-01-29T01:50:50.648Z,-5.18
2023-01-29T01:53:34.999Z,-5.19
2023-01-29T01:56:06.362Z,-5.21
2023-01-29T01:58:40.476Z,-5.21
2023-01-29T02:01:08.644Z,-5.20
2023-01-29T02:04:08.806Z,-5.21
2023-01-29T02:06:55.526Z,-5.22
2023-01-29T02:09:38.934Z,-5.23
2023-01-29T02:12:14.165Z,-5.25
2023-01-29T02:14:42.161Z,-5.25
2023-01-29T02:17:12.571Z,-5.24
2023-01-29T02:20:19.575Z,-5.21
2023-01-29T02:23:02.718Z,-5.18
2023-01-29T02:25:34.759Z,-5.13
2023-01-29T02:28:07.404Z,-5.12
2023-01-29T02:30:49.664Z,-5.09
2023-01-29T02:33:26.854Z,-5.05
2023-01-29T02:36:36.556Z,-5.00
2023-01-29T02:39:14.865Z,-4.94
2023-01-29T02:41:56.167Z,-4.90
2023-01-29T02:44:44.364Z,-4.85
2023-01-29T02:47:36.692Z,-4.79
2023-01-29T02:50:20.393Z,-4.74
2023-01-29T02:52:51.609Z,-4.69
2023-01-29T02:55:44.900Z,-4.65
2023-01-29T02:58:35.774Z,-4.58
2023-01-29T03:01:08.005Z,-4.52
2023-01-29T03:03:48.176Z,-4.47
2023-01-29T03:06:22.473Z,-4.42
2023-01-29T03:08:54.412Z,-4.38
2023-01-29T03:11:22.343Z,-4.33
2023-01-29T03:14:16.827Z,-4.29
2023-01-29T03:16:53.255Z,-4.24
2023-01-29T03:19:37.885Z,-4.20
2023-01-29T03:22:10.799Z,-4.18
2023-01-29T03:25:06.945Z,-4.14
2023-01-29T03:28:03.446Z,-4.07
2023-01-29T03:30:56.302Z,-4.02
2023-01-29T03:34:10.085Z,-3.96
2023-01-29T03:36:45.615Z,-3.90
2023-01-29T03:39:13.973Z,-3.83
2023-01-29T08:09:59.830Z,-2.52
2023-01-29T08:12:27.708Z,-2.48
2023-01-29T08:14:55.632Z,-2.35
2023-01-29T08:17:23.585Z,-2.20
2023-01-29T08:19:51.635Z,-2.04
2023-01-29T08:22:19.935Z,-1.88
2023-01-29T08:24:53.881Z,-1.75
2023-01-29T08:27:27.969Z,-1.61
2023-01-29T08:29:55.764Z,-1.49
2023-01-29T08:32:35.295Z,-1.37
2023-01-29T08:35:03.559Z,-1.26
2023-01-29T08:37:31.964Z,-1.15
2023-01-29T08:40:00.411Z,-1.04
2023-01-29T08:42:28.995Z,-0.93
2023-01-29T08:44:56.836Z,-0.83
2023-01-29T08:47:28.615Z,-0.72
2023-01-29T08:49:56.971Z,-0.61
2023-01-29T08:52:26.418Z,-0.51
2023-01-29T08:54:55.942Z,-0.40
2023-01-29T08:57:23.851Z,-0.30
2023-01-29T08:59:51.759Z,-0.21
2023-01-29T09:02:22.385Z,-0.13
2023-01-29T09:04:50.274Z,-0.10
2023-01-29T09:07:18.157Z,-0.06
2023-01-29T09:09:45.943Z,-0.01
2023-01-29T09:12:13.817Z,0.06
2023-01-29T09:14:41.901Z,0.10
2023-01-29T09:17:09.753Z,0.16
2023-01-29T09:19:37.699Z,0.24
2023-01-29T09:22:05.672Z,0.33
2023-01-29T09:24:35.093Z,0.38
2023-01-29T09:27:03.232Z,0.45
2023-01-29T09:29:31.203Z,0.53
2023-01-29T09:31:59.263Z,0.61
2023-01-29T09:34:27.156Z,0.67
2023-01-29T09:36:55.318Z,0.73
2023-01-29T09:39:23.235Z,0.81
2023-01-29T09:42:06.104Z,0.89
2023-01-29T09:44:48.734Z,0.98
2023-01-29T09:47:19.116Z,1.07
2023-01-29T09:50:08.527Z,1.14
2023-01-29T09:52:39.715Z,1.18
2023-01-29T09:55:12.965Z,1.21
2023-01-29T09:58:00.049Z,1.24
2023-01-29T10:00:37.206Z,1.27
2023-01-29T10:03:31.615Z,1.32
2023-01-29T10:06:04.213Z,1.32
2023-01-29T10:09:03.835Z,1.34
2023-01-29T10:11:49.714Z,1.34
2023-01-29T10:14:56.627Z,1.38
2023-01-29T10:17:36.902Z,1.42
2023-01-29T10:20:46.505Z,1.46
2023-01-29T10:23:39.382Z,1.48
2023-01-29T10:26:10.927Z,1.50
2023-01-29T10:28:47.541Z,1.52
2023-01-29T10:31:33.325Z,1.55
2023-01-29T10:34:07.598Z,1.54
2023-01-29T10:36:46.596Z,1.56
2023-01-29T10:39:21.902Z,1.55
2023-01-29T10:42:12.005Z,1.53
2023-01-29T10:44:39.945Z,1.50
2023-01-29T10:47:14.290Z,1.48
2023-01-29T10:49:57.438Z,1.45
2023-01-29T10:52:58.331Z,1.45
2023-01-29T10:55:51.228Z,1.48
2023-01-29T10:58:41.869Z,1.49
2023-01-29T11:01:10.227Z,1.48
2023-01-29T11:03:38.206Z,1.49
2023-01-29T11:06:30.722Z,1.51
2023-01-29T11:09:16.979Z,1.55
2023-01-29T11:11:54.709Z,1.57
2023-01-29T11:14:24.770Z,1.58
2023-01-29T11:16:52.991Z,1.57
2023-01-29T11:19:39.794Z,1.57
2023-01-29T11:22:16.470Z,1.58
2023-01-29T11:24:44.488Z,1.61
2023-01-29T11:27:16.497Z,1.63
2023-01-29T11:29:48.142Z,1.68
2023-01-29T11:32:19.011Z,1.74
2023-01-29T11:35:16.295Z,1.75
2023-01-29T11:37:45.029Z,1.76
2023-01-29T11:40:19.263Z,1.78
2023-01-29T11:42:47.360Z,1.80
2023-01-29T11:45:27.542Z,1.79
2023-01-29T16:15:57.480Z,-0.61
2023-01-29T16:18:31.705Z,-0.59
2023-01-29T16:21:12.858Z,-0.52
2023-01-29T16:23:42.912Z,-0.45
2023-01-29T16:26:15.495Z,-0.37
2023-01-29T16:28:45.067Z,-0.29
2023-01-29T16:31:14.154Z,-0.24
2023-01-29T16:33:42.759Z,-0.17
2023-01-29T16:36:27.189Z,-0.10
2023-01-29T16:38:59.988Z,-0.04
2023-01-29T16:41:32.593Z,0.04
2023-01-29T16:44:15.717Z,0.11
2023-01-29T16:46:47.695Z,0.18
2023-01-29T16:49:38.884Z,0.24
2023-01-29T16:52:19.941Z,0.30
2023-01-29T16:54:48.114Z,0.35
2023-01-29T16:57:19.034Z,0.41
2023-01-29T16:59:46.859Z,0.47
2023-01-29T17:02:41.699Z,0.50
2023-01-29T17:05:10.823Z,0.55
2023-01-29T17:07:39.632Z,0.56
2023-01-29T17:10:08.368Z,0.58
2023-01-29T17:12:38.752Z,0.60
2023-01-29T17:15:29.255Z,0.61
2023-01-29T17:17:57.549Z,0.64
2023-01-29T17:20:26.968Z,0.65
2023-01-29T17:22:56.474Z,0.67
2023-01-29T17:25:24.764Z,0.68
2023-01-29T17:27:52.993Z,0.70
2023-01-29T17:30:21.946Z,0.70
2023-01-29T17:32:50.606Z,0.70
2023-01-29T17:35:18.961Z,0.71
2023-01-29T17:37:47.340Z,0.67
2023-01-29T17:40:37.721Z,0.67
2023-01-29T17:43:07.060Z,0.67
2023-01-29T17:45:34.981Z,0.67
2023-01-29T17:48:22.009Z,0.68
2023-01-29T17:50:53.697Z,0.67
2023-01-29T17:53:21.955Z,0.64
2023-01-29T17:55:52.614Z,0.62
2023-01-29T17:58:26.104Z,0.59
2023-01-29T18:00:54.323Z,0.57
2023-01-29T18:03:22.874Z,0.51
2023-01-29T18:05:51.581Z,0.48
2023-01-29T18:08:22.366Z,0.46
2023-01-29T18:10:50.290Z,0.46
2023-01-29T18:13:18.171Z,0.44
2023-01-29T18:15:46.119Z,0.44
2023-01-29T18:18:16.094Z,0.45
2023-01-29T18:20:45.202Z,0.47
2023-01-29T18:23:13.167Z,0.48
2023-01-29T18:25:41.342Z,0.49
2023-01-29T18:28:10.801Z,0.50
2023-01-29T18:30:38.914Z,0.49
2023-01-29T18:33:06.999Z,0.47
2023-01-29T18:35:34.885Z,0.47
2023-01-29T18:38:03.091Z,0.45
2023-01-29T18:40:32.124Z,0.45
2023-01-29T18:43:01.003Z,0.44
2023-01-29T18:45:29.421Z,0.45
2023-01-29T18:47:57.745Z,0.43
2023-01-29T18:50:26.547Z,0.42
2023-01-29T18:52:54.747Z,0.41
2023-01-29T18:55:23.308Z,0.37
2023-01-29T18:58:29.371Z,0.32
2023-01-29T19:00:42.998Z,0.28
2023-01-29T19:03:11.264Z,0.25
2023-01-29T19:05:39.242Z,0.21
2023-01-29T19:08:07.418Z,0.18
2023-01-29T19:10:36.021Z,0.14
2023-01-29T19:13:06.432Z,0.11
2023-01-29T19:15:36.779Z,0.08
2023-01-29T19:18:04.799Z,0.05
2023-01-29T19:20:32.789Z,0.03
2023-01-29T19:23:00.655Z,-0.02
2023-01-29T19:25:28.749Z,-0.04
2023-01-29T19:27:56.790Z,-0.04
2023-01-29T19:30:24.887Z,-0.05
2023-01-29T19:32:53.520Z,-0.05
2023-01-29T19:35:22.270Z,-0.04
2023-01-29T19:37:50.094Z,-0.04
2023-01-29T19:40:20.910Z,-0.02
2023-01-29T23:57:36.705Z,-1.48
